createdAt,value
2023-04-17T00:02:01.536Z,102479.78
2023-04-17T00:04:48.401Z,102485.94
2023-04-17T00:07:35.007Z,102480.91
2023-04-17T00:10:22.480Z,102489.78
2023-04-17T00:13:08.434Z,102482.59
2023-04-17T00:15:54.790Z,102481.59
2023-04-17T00:18:40.650Z,102484.13
2023-04-17T00:21:29.657Z,102487.75
2023-04-17T00:24:15.332Z,102491.34
2023-04-17T00:27:03.143Z,102483.63
2023-04-17T00:29:49.312Z,102491.03
2023-04-17T00:32:35.624Z,102480.63
2023-04-17T00:35:21.361Z,102477.03
2023-04-17T00:38:08.518Z,102477.13
2023-04-17T00:40:54.241Z,102474.47
2023-04-17T00:43:41.433Z,102466.63
2023-04-17T00:46:27.784Z,102466.72
2023-04-17T00:49:14.206Z,102466.81
2023-04-17T00:52:00.058Z,102471.59
2023-04-17T00:54:45.897Z,102474.16
2023-04-17T00:57:31.613Z,102474.25
2023-04-17T01:00:18.928Z,102473.13
2023-04-17T01:03:05.236Z,102472.78
2023-04-17T01:05:52.057Z,102456.34
2023-04-17T01:08:40.361Z,102455.13
2023-04-17T01:11:26.764Z,102461.44
2023-04-17T01:14:12.417Z,102458.91
2023-04-17T01:16:59.712Z,102464.38
2023-04-17T01:19:46.218Z,102462.78
2023-04-17T01:22:32.328Z,102462.00
2023-04-17T01:25:19.986Z,102462.16
2023-04-17T01:28:06.529Z,102466.03
2023-04-17T01:30:52.295Z,102472.44
2023-04-17T01:33:38.654Z,102470.41
2023-04-17T01:36:24.331Z,102476.66
2023-04-17T01:39:10.390Z,102474.84
2023-04-17T01:41:58.860Z,102485.88
2023-04-17T01:44:44.711Z,102482.28
2023-04-17T01:47:30.512Z,102483.56
2023-04-17T01:50:16.441Z,102487.91
2023-04-17T01:53:02.253Z,102491.00
2023-04-17T01:55:48.034Z,102491.28
2023-04-17T01:58:35.125Z,102493.25
2023-04-17T02:01:20.971Z,102494.22
2023-04-17T02:04:06.881Z,102497.59
2023-04-17T02:06:52.902Z,102505.06
2023-04-17T02:09:38.627Z,102504.03
2023-04-17T02:12:26.942Z,102511.97
2023-04-17T02:15:14.263Z,102513.78
2023-04-17T02:18:00.393Z,102511.38
2023-04-17T02:20:46.067Z,102516.69
2023-04-17T02:23:31.772Z,102518.56
2023-04-17T02:26:17.672Z,102516.09
2023-04-17T02:29:03.669Z,102520.59
2023-04-17T02:31:51.218Z,102525.13
2023-04-17T02:34:37.382Z,102533.97
2023-04-17T02:37:23.821Z,102535.06
2023-04-17T02:40:12.250Z,102533.53
2023-04-17T02:42:58.341Z,102535.41
2023-04-17T02:45:44.620Z,102528.50
2023-04-17T02:48:33.596Z,102537.47
2023-04-17T02:51:19.379Z,102540.25
2023-04-17T02:54:05.442Z,102546.47
2023-04-17T02:56:51.449Z,102542.97
2023-04-17T02:59:37.158Z,102544.94
2023-04-17T03:02:23.269Z,102545.88
2023-04-17T03:05:11.414Z,102552.09
2023-04-17T03:07:57.278Z,102554.97
2023-04-17T03:10:43.641Z,102560.44
2023-04-17T03:13:29.305Z,102554.22
2023-04-17T03:16:15.417Z,102558.00
2023-04-17T03:19:03.548Z,102558.94
2023-04-17T03:21:50.587Z,102560.72
2023-04-17T03:24:36.953Z,102559.97
2023-04-17T03:27:24.585Z,102567.13
2023-04-17T03:30:12.297Z,102570.78
2023-04-17T03:32:59.758Z,102580.50
2023-04-17T03:35:48.521Z,102575.38
2023-04-17T03:38:36.873Z,102579.81
2023-04-17T03:41:24.972Z,102579.88
2023-04-17T03:44:12.429Z,102583.38
2023-04-17T03:46:58.451Z,102586.09
2023-04-17T03:49:44.819Z,102587.09
2023-04-17T03:52:31.590Z,102603.09
2023-04-17T03:55:19.764Z,102595.16
2023-04-17T03:58:07.515Z,102601.53
2023-04-17T04:00:55.403Z,102603.25
2023-04-17T04:03:44.775Z,102609.53
2023-04-17T04:06:30.803Z,102610.56
2023-04-17T04:09:17.677Z,102613.28
2023-04-17T04:12:05.513Z,102620.50
2023-04-17T04:14:57.842Z,102624.03
2023-04-17T04:17:45.278Z,102624.22
2023-04-17T04:20:31.584Z,102625.13
2023-04-17T04:23:30.469Z,102622.50
2023-04-17T04:26:17.416Z,102625.28
2023-04-17T04:29:11.698Z,102629.72
2023-04-17T04:32:15.738Z,102635.00
2023-04-17T04:35:06.513Z,102636.00
2023-04-17T04:37:54.717Z,102639.59
2023-04-17T04:40:43.768Z,102642.38
2023-04-17T04:43:30.014Z,102642.47
2023-04-17T04:46:17.334Z,102649.44
2023-04-17T04:49:06.685Z,102653.94
2023-04-17T04:51:52.741Z,102651.31
2023-04-17T04:54:43.242Z,102659.22
2023-04-17T04:57:29.074Z,102654.00
2023-04-17T05:00:18.539Z,102659.28
2023-04-17T05:03:08.033Z,102667.19
2023-04-17T05:05:54.151Z,102677.69
2023-04-17T05:08:44.954Z,102683.84
2023-04-17T05:11:33.463Z,102687.25
2023-04-17T05:14:20.622Z,102692.38
2023-04-17T05:17:08.212Z,102702.84
2023-04-17T05:19:55.628Z,102701.91
2023-04-17T05:22:43.003Z,102704.47
2023-04-17T05:25:31.457Z,102710.38
2023-04-17T05:28:19.148Z,102705.84
2023-04-17T05:31:05.933Z,102709.25
2023-04-17T05:33:56.445Z,102723.06
2023-04-17T05:36:43.548Z,102728.13
2023-04-17T05:39:29.337Z,102729.69
2023-04-17T05:42:16.047Z,102728.63
2023-04-17T05:45:02.863Z,102734.38
2023-04-17T05:47:49.288Z,102731.50
2023-04-17T05:50:37.274Z,102729.50
2023-04-17T05:53:25.582Z,102730.03
2023-04-17T05:56:15.974Z,102728.00
2023-04-17T05:59:02.680Z,102733.84
2023-04-17T06:01:50.027Z,102733.44
2023-04-17T06:04:41.447Z,102733.94
2023-04-17T06:07:28.109Z,102727.38
2023-04-17T06:10:15.548Z,102730.63
2023-04-17T06:13:02.160Z,102728.38
2023-04-17T06:15:48.946Z,102732.31
2023-04-17T06:18:34.824Z,102722.13
2023-04-17T06:21:21.062Z,102715.47
2023-04-17T06:24:07.291Z,102716.69
2023-04-17T06:26:55.106Z,102703.88
2023-04-17T06:29:41.679Z,102693.56
2023-04-17T06:32:29.108Z,102685.03
2023-04-17T06:35:15.477Z,102679.91
2023-04-17T06:38:05.957Z,102670.31
2023-04-17T06:40:52.822Z,102667.75
2023-04-17T06:43:40.244Z,102646.78
2023-04-17T06:46:33.597Z,102637.38
2023-04-17T06:49:23.346Z,102624.34
2023-04-17T06:52:09.664Z,102598.59
2023-04-17T06:54:55.858Z,102590.47
2023-04-17T06:57:41.643Z,102580.44
2023-04-17T07:00:29.034Z,102560.81
2023-04-17T07:03:16.678Z,102531.53
2023-04-17T07:06:02.960Z,102508.03
2023-04-17T07:08:48.977Z,102471.09
2023-04-17T07:11:34.768Z,102448.94
2023-04-17T07:14:20.497Z,102431.88
2023-04-17T07:17:07.654Z,102408.72
2023-04-17T07:19:53.524Z,102389.47
2023-04-17T07:22:39.912Z,102369.50
2023-04-17T07:25:26.374Z,102367.97
2023-04-17T07:28:12.089Z,102351.41
2023-04-17T07:30:58.929Z,102341.97
2023-04-17T07:33:46.644Z,102337.91
2023-04-17T07:36:32.395Z,102327.28
2023-04-17T07:39:18.450Z,102324.44
2023-04-17T07:42:07.244Z,102323.88
2023-04-17T07:44:53.282Z,102319.72
2023-04-17T07:47:39.041Z,102315.53
2023-04-17T07:50:26.716Z,102315.81
2023-04-17T07:53:12.466Z,102319.53
2023-04-17T07:55:59.140Z,102310.81
2023-04-17T07:58:45.349Z,102316.09
2023-04-17T08:01:31.945Z,102305.28
2023-04-17T08:04:18.186Z,102301.81
2023-04-17T08:07:06.429Z,102306.22
2023-04-17T08:09:52.425Z,102298.84
2023-04-17T08:12:38.211Z,102295.06
2023-04-17T08:15:24.440Z,102287.16
2023-04-17T08:18:11.099Z,102296.34
2023-04-17T08:20:57.495Z,102282.63
2023-04-17T08:23:44.964Z,102291.69
2023-04-17T08:26:30.770Z,102282.69
2023-04-17T08:29:16.898Z,102281.78
2023-04-17T08:32:13.953Z,102272.34
2023-04-17T08:35:01.465Z,102257.59
2023-04-17T08:37:47.398Z,102255.47
2023-04-17T08:40:34.368Z,102262.13
2023-04-17T08:43:21.123Z,102248.47
2023-04-17T08:46:07.569Z,102242.09
2023-04-17T08:48:53.831Z,102241.50
2023-04-17T08:51:39.782Z,102248.13
2023-04-17T08:54:26.375Z,102235.38
2023-04-17T08:57:13.719Z,102239.00
2023-04-17T09:00:00.219Z,102235.13
2023-04-17T09:02:53.764Z,102222.59
2023-04-17T09:05:41.744Z,102209.81
2023-04-17T09:08:29.108Z,102178.25
2023-04-17T09:11:17.363Z,102213.78
2023-04-17T09:14:04.589Z,102204.97
2023-04-17T09:16:53.830Z,102204.53
2023-04-17T09:19:40.191Z,102186.09
2023-04-17T09:22:26.325Z,102199.94
2023-04-17T09:25:18.421Z,102183.97
2023-04-17T09:28:10.274Z,102171.53
2023-04-17T09:30:57.814Z,102143.34
2023-04-17T09:33:47.756Z,102137.03
2023-04-17T09:36:34.593Z,102117.44
2023-04-17T09:39:23.766Z,102110.56
2023-04-17T09:42:10.333Z,102108.25
2023-04-17T09:44:57.757Z,102096.75
2023-04-17T09:47:45.522Z,102092.44
2023-04-17T09:50:31.762Z,102101.31
2023-04-17T09:53:17.772Z,102094.28
2023-04-17T09:56:05.525Z,102079.03
2023-04-17T09:58:51.605Z,102076.19
2023-04-17T10:01:38.259Z,102068.19
2023-04-17T10:04:25.804Z,102093.31
2023-04-17T10:07:12.932Z,102102.25
2023-04-17T10:10:01.013Z,102109.19
2023-04-17T10:12:47.219Z,102095.41
2023-04-17T10:15:33.757Z,102104.28
2023-04-17T10:18:20.184Z,102106.56
2023-04-17T10:21:21.709Z,102126.56
2023-04-17T10:24:22.869Z,102128.91
2023-04-17T10:27:23.613Z,102114.25
2023-04-17T10:30:12.800Z,102109.59
2023-04-17T10:33:19.779Z,102116.00
2023-04-17T10:36:05.948Z,102128.72
2023-04-17T10:38:51.913Z,102126.59
2023-04-17T10:41:37.654Z,102125.50
2023-04-17T10:44:23.420Z,102123.22
2023-04-17T10:50:03.311Z,102131.16
2023-04-17T10:52:49.256Z,102128.44
2023-04-17T10:55:35.294Z,102116.94
2023-04-17T10:58:21.492Z,102117.66
2023-04-17T11:01:17.696Z,102119.91
2023-04-17T11:04:06.113Z,102111.31
2023-04-17T11:06:52.570Z,102110.50
2023-04-17T11:09:38.777Z,102107.44
2023-04-17T11:12:24.576Z,102105.53
2023-04-17T11:15:10.924Z,102118.91
2023-04-17T11:17:57.805Z,102113.41
2023-04-17T11:20:45.665Z,102109.06
2023-04-17T11:23:34.463Z,102105.53
2023-04-17T11:26:20.658Z,102117.44
2023-04-17T11:29:14.285Z,102113.91
2023-04-17T11:32:01.181Z,102111.31
2023-04-17T11:34:46.978Z,102116.84
2023-04-17T11:37:34.231Z,102116.03
2023-04-17T11:40:23.724Z,102112.75
2023-04-17T11:43:10.095Z,102114.50
2023-04-17T11:45:57.102Z,102100.03
2023-04-17T11:48:43.140Z,102109.00
2023-04-17T11:51:29.270Z,102105.72
2023-04-17T11:54:22.186Z,102102.16
2023-04-17T11:57:11.790Z,102109.53
2023-04-17T11:59:57.728Z,102105.78
2023-04-17T12:02:43.829Z,102109.66
2023-04-17T12:05:30.525Z,102106.53
2023-04-17T12:08:16.718Z,102102.56
2023-04-17T12:11:03.976Z,102099.09
2023-04-17T12:13:49.668Z,102103.00
2023-04-17T12:16:35.512Z,102095.19
2023-04-17T12:19:21.809Z,102100.19
2023-04-17T12:22:07.677Z,102094.06
2023-04-17T12:24:53.645Z,102093.31
2023-04-17T12:27:40.981Z,102091.38
2023-04-17T12:30:27.240Z,102094.19
2023-04-17T12:33:13.128Z,102093.72
2023-04-17T12:35:58.970Z,102086.09
2023-04-17T12:38:44.983Z,102086.03
2023-04-17T12:41:31.834Z,102085.88
2023-04-17T12:44:19.069Z,102082.81
2023-04-17T12:47:05.058Z,102085.94
2023-04-17T12:49:51.048Z,102084.66
2023-04-17T12:52:36.841Z,102085.69
2023-04-17T12:55:22.789Z,102086.22
2023-04-17T12:58:09.991Z,102088.03
2023-04-17T13:00:57.412Z,102080.16
2023-04-17T13:03:43.336Z,102074.28
2023-04-17T13:06:29.469Z,102082.19
2023-04-17T13:09:16.937Z,102086.25
2023-04-17T13:12:05.336Z,102079.81
2023-04-17T13:14:51.431Z,102084.44
2023-04-17T13:17:39.247Z,102077.72
2023-04-17T13:20:25.533Z,102072.75
2023-04-17T13:23:11.816Z,102072.59
2023-04-17T13:25:57.842Z,102083.53
2023-04-17T13:28:43.807Z,102078.50
2023-04-17T13:31:30.203Z,102064.53
2023-04-17T13:34:17.533Z,102065.84
2023-04-17T13:37:03.575Z,102060.47
2023-04-17T13:39:49.727Z,102043.97
2023-04-17T13:42:35.704Z,102048.53
2023-04-17T13:45:21.878Z,102053.38
2023-04-17T13:48:08.105Z,102048.53
2023-04-17T13:50:55.461Z,102049.22
2023-04-17T13:53:41.404Z,102040.44
2023-04-17T13:56:27.648Z,102045.88
2023-04-17T13:59:13.705Z,102040.34
2023-04-17T14:02:03.660Z,102033.94
2023-04-17T14:04:50.437Z,102026.78
2023-04-17T14:07:37.851Z,102026.63
2023-04-17T14:10:24.014Z,102018.06
2023-04-17T14:13:10.105Z,102019.41
2023-04-17T14:15:56.101Z,102022.53
2023-04-17T14:18:42.143Z,102020.53
2023-04-17T14:21:28.544Z,102022.09
2023-04-17T14:24:15.915Z,102026.78
2023-04-17T14:27:02.015Z,102027.53
2023-04-17T14:29:47.832Z,102026.78
2023-04-17T14:32:33.662Z,102040.31
2023-04-17T14:35:19.423Z,102028.91
2023-04-17T14:38:05.286Z,102029.50
2023-04-17T14:40:52.855Z,102031.78
2023-04-17T14:43:38.966Z,102024.84
2023-04-17T14:46:24.729Z,102026.53
2023-04-17T14:49:11.296Z,102008.41
2023-04-17T14:51:57.489Z,102019.25
2023-04-17T14:54:43.513Z,102016.03
2023-04-17T14:57:30.706Z,102016.81
2023-04-17T15:00:16.996Z,102021.03
2023-04-17T15:03:03.063Z,102022.28
2023-04-17T15:05:49.175Z,102027.75
2023-04-17T15:08:35.268Z,102026.03
2023-04-17T15:11:21.168Z,102023.72
2023-04-17T15:14:08.253Z,102025.34
2023-04-17T15:16:54.388Z,102026.41
2023-04-17T15:19:40.862Z,102029.16
2023-04-17T15:22:26.969Z,102034.13
2023-04-17T15:25:12.770Z,102028.00
2023-04-17T15:27:58.484Z,102026.09
2023-04-17T15:30:45.665Z,102027.28
2023-04-17T15:33:31.725Z,102025.38
2023-04-17T15:36:17.774Z,102025.31
2023-04-17T15:39:03.717Z,102025.63
2023-04-17T15:41:49.759Z,102018.75
2023-04-17T15:44:37.365Z,102028.16
2023-04-17T15:47:24.506Z,102018.47
2023-04-17T15:50:10.866Z,102021.59
2023-04-17T15:52:56.701Z,102026.94
2023-04-17T15:55:42.485Z,102022.78
2023-04-17T15:58:28.450Z,102018.53
2023-04-17T16:01:14.698Z,102022.75
2023-04-17T16:04:02.106Z,102021.66
2023-04-17T16:06:48.582Z,102022.38
2023-04-17T16:09:34.560Z,102015.34
2023-04-17T16:12:20.488Z,102021.66
2023-04-17T16:15:07.177Z,102024.94
2023-04-17T16:17:53.258Z,102026.34
2023-04-17T16:20:40.294Z,102031.97
2023-04-17T16:23:26.188Z,102034.66
2023-04-17T16:26:13.869Z,102037.06
2023-04-17T16:28:59.950Z,102032.97
2023-04-17T16:31:46.115Z,102028.63
2023-04-17T16:34:31.869Z,102031.56
2023-04-17T16:37:18.969Z,102027.34
2023-04-17T16:40:05.337Z,102040.44
2023-04-17T16:42:51.496Z,102039.72
2023-04-17T16:45:37.388Z,102039.13
2023-04-17T16:48:23.746Z,102043.06
2023-04-17T16:51:09.918Z,102037.31
2023-04-17T16:53:56.969Z,102041.78
2023-04-17T16:56:42.967Z,102050.63
2023-04-17T16:59:28.955Z,102057.66
2023-04-17T17:02:14.911Z,102055.06
2023-04-17T17:05:01.551Z,102061.34
2023-04-17T17:07:47.583Z,102059.94
2023-04-17T17:10:34.718Z,102063.13
2023-04-17T17:13:20.688Z,102062.97
2023-04-17T17:16:06.663Z,102065.31
2023-04-17T17:18:52.565Z,102071.19
2023-04-17T17:21:38.632Z,102079.59
2023-04-17T17:24:24.722Z,102068.88
2023-04-17T17:27:12.940Z,102074.47
2023-04-17T17:30:00.381Z,102081.44
2023-04-17T17:32:46.364Z,102082.78
2023-04-17T17:35:33.545Z,102085.00
2023-04-17T17:38:19.514Z,102088.34
2023-04-17T17:41:05.460Z,102087.16
2023-04-17T17:43:52.871Z,102090.88
2023-04-17T17:46:39.126Z,102094.50
2023-04-17T17:49:24.989Z,102098.78
2023-04-17T17:52:10.971Z,102100.00
2023-04-17T17:54:57.490Z,102100.88
2023-04-17T17:57:48.813Z,102114.06
2023-04-17T18:00:37.400Z,102119.31
2023-04-17T18:03:25.996Z,102128.53
2023-04-17T18:06:12.559Z,102138.69
2023-04-17T18:08:58.751Z,102159.63
2023-04-17T18:11:44.998Z,102160.59
2023-04-17T18:14:31.139Z,102174.78
2023-04-17T18:17:18.812Z,102177.66
2023-04-17T18:20:04.549Z,102186.16
2023-04-17T18:22:51.454Z,102163.78
2023-04-17T18:25:38.968Z,102142.38
2023-04-17T18:28:25.442Z,102149.38
2023-04-17T18:31:11.193Z,102176.59
2023-04-17T18:34:01.909Z,102202.41
2023-04-17T18:36:48.329Z,102222.59
2023-04-17T18:39:34.182Z,102234.19
2023-04-17T18:42:20.645Z,102252.31
2023-04-17T18:45:07.298Z,102266.78
2023-04-17T18:47:53.339Z,102278.03
2023-04-17T18:50:40.355Z,102283.31
2023-04-17T18:53:27.464Z,102294.81
2023-04-17T18:56:14.904Z,102308.22
2023-04-17T18:59:00.887Z,102309.28
2023-04-17T19:01:46.601Z,102331.81
2023-04-17T19:04:34.255Z,102335.22
2023-04-17T19:07:21.432Z,102339.25
2023-04-17T19:10:08.499Z,102347.31
2023-04-17T19:12:54.222Z,102357.91
2023-04-17T19:15:40.236Z,102359.09
2023-04-17T19:18:26.490Z,102362.34
2023-04-17T19:21:15.553Z,102365.25
2023-04-17T19:24:02.765Z,102372.88
2023-04-17T19:26:48.840Z,102383.88
2023-04-17T19:29:34.756Z,102383.88
2023-04-17T19:32:20.743Z,102391.56
2023-04-17T19:35:07.508Z,102399.72
2023-04-17T19:37:53.498Z,102404.00
2023-04-17T19:40:40.729Z,102413.22
2023-04-17T19:43:26.540Z,102428.56
2023-04-17T19:46:13.260Z,102424.47
2023-04-17T19:48:59.827Z,102427.41
2023-04-17T19:51:45.900Z,102427.78
2023-04-17T19:54:32.446Z,102437.78
2023-04-17T19:57:19.874Z,102441.53
2023-04-17T20:00:06.318Z,102444.47
2023-04-17T20:02:58.343Z,102445.97
2023-04-17T20:05:44.652Z,102451.66
2023-04-17T20:08:30.536Z,102441.97
2023-04-17T20:11:16.718Z,102451.06
2023-04-17T20:14:04.249Z,102449.31
2023-04-17T20:16:50.477Z,102458.75
2023-04-17T20:19:36.530Z,102464.59
2023-04-17T20:22:22.296Z,102460.16
2023-04-17T20:25:08.398Z,102468.19
2023-04-17T20:27:54.458Z,102471.88
2023-04-17T20:30:41.597Z,102466.81
2023-04-17T20:33:27.472Z,102470.50
2023-04-17T20:36:13.753Z,102465.41
2023-04-17T20:38:59.720Z,102468.78
2023-04-17T20:41:46.350Z,102465.22
2023-04-17T20:44:32.475Z,102466.63
2023-04-17T20:47:19.534Z,102470.94
2023-04-17T20:50:05.590Z,102464.09
2023-04-17T20:52:51.627Z,102465.47
2023-04-17T20:55:37.610Z,102468.78
2023-04-17T20:58:23.746Z,102471.31
2023-04-17T21:01:09.467Z,102464.22
2023-04-17T21:03:56.660Z,102464.06
2023-04-17T21:06:42.988Z,102471.03
2023-04-17T21:09:28.748Z,102467.22
2023-04-17T21:12:15.403Z,102465.41
2023-04-17T21:15:01.570Z,102468.81
2023-04-17T21:17:47.832Z,102467.38
2023-04-17T21:20:35.599Z,102462.78
2023-04-17T21:23:21.818Z,102460.69
2023-04-17T21:26:07.511Z,102462.22
2023-04-17T21:28:53.373Z,102464.66
2023-04-17T21:31:39.490Z,102464.84
2023-04-17T21:34:25.554Z,102463.91
2023-04-17T21:37:12.565Z,102461.25
2023-04-17T21:39:58.550Z,102468.34
2023-04-17T21:42:44.351Z,102466.75
2023-04-17T21:45:31.659Z,102459.66
2023-04-17T21:48:17.757Z,102458.06
2023-04-17T21:51:04.134Z,102456.25
2023-04-17T21:53:51.666Z,102462.97
2023-04-17T21:56:37.434Z,102462.22
2023-04-17T21:59:24.239Z,102463.34
2023-04-17T22:02:10.406Z,102460.41
2023-04-17T22:04:56.068Z,102464.66
2023-04-17T22:07:51.748Z,102462.31
2023-04-17T22:10:42.461Z,102457.94
2023-04-17T22:13:28.297Z,102457.84
2023-04-17T22:16:14.196Z,102461.25
2023-04-17T22:18:59.936Z,102455.50
2023-04-17T22:21:45.727Z,102457.09
2023-04-17T22:24:31.763Z,102456.16
2023-04-17T22:27:18.978Z,102460.78
2023-04-17T22:30:06.248Z,102465.03
2023-04-17T22:32:52.531Z,102461.72
2023-04-17T22:35:38.138Z,102464.19
2023-04-17T22:38:23.903Z,102465.91
2023-04-17T22:41:09.593Z,102464.09
2023-04-17T22:43:56.789Z,102462.31
2023-04-17T22:46:42.762Z,102465.22
2023-04-17T22:49:28.919Z,102460.88
2023-04-17T22:52:14.870Z,102473.88
2023-04-17T22:55:01.574Z,102466.41
2023-04-17T22:57:47.200Z,102469.91
2023-04-17T23:00:34.403Z,102471.56
2023-04-17T23:03:20.252Z,102476.16
2023-04-17T23:06:07.366Z,102479.25
2023-04-17T23:08:53.207Z,102482.75
2023-04-17T23:11:39.006Z,102481.81
2023-04-17T23:14:26.100Z,102477.56
2023-04-17T23:17:13.241Z,102486.16
2023-04-17T23:19:59.015Z,102477.66
2023-04-17T23:22:45.212Z,102487.81
2023-04-17T23:25:31.282Z,102485.25
2023-04-17T23:28:17.142Z,102488.66
2023-04-17T23:31:04.476Z,102489.00
2023-04-17T23:33:51.583Z,102485.59
2023-04-17T23:36:37.333Z,102496.09
2023-04-17T23:39:23.141Z,102499.09
2023-04-17T23:42:09.568Z,102497.16
2023-04-17T23:44:55.550Z,102495.84
2023-04-17T23:47:41.460Z,102501.50
2023-04-17T23:50:29.050Z,102498.00
2023-04-17T23:53:14.797Z,102496.56
2023-04-17T23:56:00.734Z,102495.09
2023-04-17T23:58:46.737Z,102501.75
